Time;durP1;ratioP1;P1;durP2;ratioP2;P2;SDS_P1;SDS_P2;PMS_P1;PMS_P2;Temp;Humidity;BMP_temperature;BMP_pressure;BME280_temperature;BME280_humidity;BME280_pressure;Samples;Min_cycle;Max_cycle;Signal;HPM_P1;HPM_P2
2022/05/31 00:02:00;;;;;;;0.05;0.00;;;21.80;79.30;;;;;;5045594;28;21939;-77
2022/05/31 00:04:29;;;;;;;2.08;0.00;;;21.80;80.80;;;;;;5032679;28;20040;-73
2022/05/31 00:06:57;;;;;;;0.38;0.00;;;21.80;80.80;;;;;;5036742;28;20476;-73
2022/05/31 00:09:25;;;;;;;0.00;0.00;;;22.00;81.10;;;;;;5048206;28;20036;-77
2022/05/31 00:11:52;;;;;;;0.35;0.00;;;22.50;80.00;;;;;;5040621;28;20034;-75
2022/05/31 00:14:20;;;;;;;0.32;0.10;;;22.60;79.10;;;;;;5035922;28;20032;-77
2022/05/31 00:16:48;;;;;;;2.42;0.00;;;22.70;79.50;;;;;;5042628;28;20029;-78
2022/05/31 00:19:17;;;;;;;0.10;0.00;;;22.70;78.70;;;;;;5045098;28;20452;-77
2022/05/31 00:21:50;;;;;;;0.22;0.13;;;22.70;79.20;;;;;;5046139;28;20454;-74
2022/05/31 00:24:20;;;;;;;0.13;0.10;;;22.80;79.20;;;;;;5033910;28;20595;-74
2022/05/31 00:26:47;;;;;;;0.35;0.32;;;22.90;79.10;;;;;;5036529;28;20038;-74
2022/05/31 00:29:15;;;;;;;0.43;0.10;;;23.10;78.50;;;;;;5044302;28;20393;-76
2022/05/31 00:31:46;;;;;;;0.08;0.00;;;22.70;77.90;;;;;;5038003;28;20491;-75
2022/05/31 00:34:15;;;;;;;0.20;0.00;;;22.20;79.10;;;;;;5043373;28;20476;-82
2022/05/31 00:36:45;;;;;;;0.20;0.10;;;21.90;79.70;;;;;;5036047;28;20407;-79
2022/05/31 00:39:13;;;;;;;1.13;0.10;;;21.60;80.20;;;;;;5065613;28;20030;-80
2022/05/31 00:41:42;;;;;;;0.00;0.00;;;21.90;79.80;;;;;;5035623;28;20037;-76
2022/05/31 00:44:15;;;;;;;0.40;0.10;;;21.50;79.00;;;;;;5036453;28;20051;-75
2022/05/31 00:46:50;;;;;;;0.30;0.22;;;21.40;80.90;;;;;;5040841;28;20024;-78
2022/05/31 00:49:41;;;;;;;0.22;0.00;;;21.60;80.30;;;;;;5046243;28;20391;-77
2022/05/31 00:52:35;;;;;;;0.40;0.10;;;21.90;81.00;;;;;;5038316;28;20092;-77
2022/05/31 00:55:17;;;;;;;0.00;0.00;;;22.40;80.10;;;;;;5046452;28;20078;-78
2022/05/31 00:57:53;;;;;;;0.20;0.10;;;22.20;78.90;;;;;;5034181;28;20128;-74
2022/05/31 01:00:21;;;;;;;0.00;0.00;;;22.00;79.90;;;;;;5034911;28;20048;-77
2022/05/31 01:02:49;;;;;;;0.70;0.10;;;21.80;80.30;;;;;;5032033;28;20041;-75
2022/05/31 01:05:17;;;;;;;0.30;0.00;;;21.90;80.30;;;;;;5032769;28;20021;-75
2022/05/31 01:07:45;;;;;;;0.00;0.00;;;22.00;80.20;;;;;;5030503;28;20123;-77
2022/05/31 01:10:15;;;;;;;0.10;0.00;;;22.30;79.40;;;;;;5029424;28;20021;-73
2022/05/31 01:12:44;;;;;;;0.05;0.00;;;21.80;79.70;;;;;;5028290;28;20123;-74
2022/05/31 01:15:14;;;;;;;0.20;0.00;;;21.80;80.00;;;;;;5032743;28;20385;-78
2022/05/31 01:17:43;;;;;;;0.00;0.00;;;21.50;80.10;;;;;;5031567;28;20086;-76
2022/05/31 01:20:12;;;;;;;0.00;0.00;;;21.80;81.40;;;;;;5030155;28;20056;-77
2022/05/31 01:22:41;;;;;;;0.00;0.00;;;21.90;80.80;;;;;;5030646;28;20025;-75
2022/05/31 01:25:23;;;;;;;0.00;0.00;;;22.20;79.60;;;;;;5032425;28;20060;-74
2022/05/31 01:28:16;;;;;;;0.10;0.10;;;22.20;78.50;;;;;;5028899;28;20043;-73
2022/05/31 01:30:55;;;;;;;0.00;0.00;;;22.40;80.00;;;;;;5033140;28;20064;-76
2022/05/31 01:33:55;;;;;;;0.52;0.00;;;22.60;79.30;;;;;;5039181;28;20178;-75
2022/05/31 01:36:55;;;;;;;0.10;0.00;;;22.10;79.50;;;;;;5030609;28;20030;-74
2022/05/31 01:39:34;;;;;;;0.10;0.00;;;21.80;80.20;;;;;;5030142;28;20022;-73
2022/05/31 01:42:17;;;;;;;0.00;0.00;;;20.80;80.40;;;;;;5035065;28;20045;-76
2022/05/31 01:44:48;;;;;;;0.25;0.22;;;20.50;82.00;;;;;;5032594;28;20124;-74
2022/05/31 01:47:18;;;;;;;0.05;0.05;;;20.60;83.00;;;;;;5032670;28;20325;-78
2022/05/31 01:49:50;;;;;;;0.00;0.00;;;21.70;81.90;;;;;;5033564;28;20492;-75
2022/05/31 01:52:18;;;;;;;0.52;0.10;;;21.80;79.50;;;;;;5034767;28;20033;-76
2022/05/31 01:54:47;;;;;;;0.00;0.00;;;21.50;80.60;;;;;;5042044;28;20026;-78
2022/05/31 01:57:16;;;;;;;0.73;0.00;;;21.30;81.80;;;;;;5046916;28;20121;-79
2022/05/31 01:59:55;;;;;;;0.03;0.00;;;21.90;81.80;;;;;;5039508;28;20045;-75
2022/05/31 02:02:23;;;;;;;0.00;0.00;;;21.70;81.60;;;;;;5030210;28;20426;-75
2022/05/31 02:04:50;;;;;;;0.00;0.00;;;22.20;81.50;;;;;;5037829;28;20029;-75
2022/05/31 02:07:21;;;;;;;0.10;0.10;;;21.90;80.70;;;;;;5039865;28;20391;-82
2022/05/31 02:09:51;;;;;;;0.52;0.10;;;21.50;81.10;;;;;;5037770;28;20029;-74
2022/05/31 02:12:22;;;;;;;0.10;0.10;;;22.30;81.30;;;;;;5048242;28;20029;-79
2022/05/31 02:14:50;;;;;;;0.20;0.00;;;22.40;80.00;;;;;;5038130;28;20108;-76
2022/05/31 02:17:17;;;;;;;0.00;0.00;;;22.70;80.80;;;;;;5049831;28;20051;-77
2022/05/31 02:19:45;;;;;;;0.17;0.10;;;22.30;77.20;;;;;;5043575;28;20025;-76
2022/05/31 02:22:16;;;;;;;0.17;0.00;;;21.90;78.30;;;;;;5037472;28;20063;-76
2022/05/31 02:24:44;;;;;;;0.17;0.00;;;22.00;77.60;;;;;;5040368;28;20091;-78
2022/05/31 02:27:14;;;;;;;0.08;0.00;;;21.80;76.90;;;;;;5038252;28;20052;-79
2022/05/31 02:29:42;;;;;;;0.17;0.00;;;21.30;77.80;;;;;;5035528;28;20059;-77
2022/05/31 02:32:12;;;;;;;0.00;0.00;;;20.40;78.40;;;;;;5046508;28;20040;-75
2022/05/31 02:34:48;;;;;;;0.03;0.00;;;20.30;79.90;;;;;;5038453;28;20048;-80
2022/05/31 02:37:16;;;;;;;0.00;0.00;;;20.60;79.70;;;;;;5041024;28;20104;-75
2022/05/31 02:39:43;;;;;;;0.47;0.00;;;20.60;79.50;;;;;;5031623;28;20033;-75
2022/05/31 02:42:11;;;;;;;0.10;0.03;;;20.00;80.50;;;;;;5031760;28;20033;-78
2022/05/31 02:44:39;;;;;;;0.98;0.35;;;20.20;82.30;;;;;;5038218;28;20045;-81
2022/05/31 02:47:08;;;;;;;0.00;0.00;;;19.30;82.30;;;;;;5049345;28;20040;-77
2022/05/31 02:49:37;;;;;;;0.15;0.15;;;19.20;83.50;;;;;;5044189;28;20530;-75
2022/05/31 02:52:05;;;;;;;0.70;0.10;;;19.00;83.80;;;;;;5037334;28;20645;-82
2022/05/31 02:54:33;;;;;;;0.30;0.05;;;19.50;83.70;;;;;;5039463;28;20112;-76
2022/05/31 02:57:00;;;;;;;0.10;0.00;;;20.00;82.70;;;;;;5040293;28;20044;-80
2022/05/31 02:59:28;;;;;;;0.35;0.10;;;19.70;82.20;;;;;;5033428;28;20621;-73
2022/05/31 03:01:55;;;;;;;2.13;0.00;;;20.00;84.70;;;;;;5038416;28;20116;-76
2022/05/31 03:04:23;;;;;;;0.63;0.00;;;20.20;85.60;;;;;;5030477;28;20028;-73
2022/05/31 03:06:50;;;;;;;0.10;0.00;;;20.30;85.50;;;;;;5048377;28;20047;-79
2022/05/31 03:09:18;;;;;;;0.20;0.00;;;20.30;84.20;;;;;;5043793;28;20082;-76
2022/05/31 03:11:50;;;;;;;0.00;0.00;;;20.20;83.50;;;;;;5045558;28;20113;-77
2022/05/31 03:14:23;;;;;;;0.05;0.00;;;20.20;82.40;;;;;;5033788;28;20040;-78
2022/05/31 03:16:59;;;;;;;0.00;0.00;;;20.00;81.10;;;;;;5036890;28;20079;-75
2022/05/31 03:19:33;;;;;;;0.00;0.00;;;19.60;81.60;;;;;;5040950;28;20033;-75
2022/05/31 03:22:05;;;;;;;0.00;0.00;;;19.20;82.50;;;;;;5042885;28;20032;-77
2022/05/31 03:24:42;;;;;;;0.98;0.10;;;19.00;83.50;;;;;;5038486;28;20475;-76
2022/05/31 03:27:12;;;;;;;0.65;0.00;;;18.70;84.30;;;;;;5034944;28;20025;-78
2022/05/31 03:29:45;;;;;;;0.47;0.20;;;18.40;84.90;;;;;;5028399;28;20033;-78
2022/05/31 03:32:13;;;;;;;0.30;0.00;;;18.00;85.40;;;;;;5034001;28;20348;-77
2022/05/31 03:34:41;;;;;;;0.08;0.08;;;17.60;87.00;;;;;;5040740;28;20448;-73
2022/05/31 03:37:08;;;;;;;0.10;0.00;;;17.20;87.20;;;;;;5030328;28;20067;-76
2022/05/31 03:39:36;;;;;;;0.52;0.52;;;16.80;88.60;;;;;;5036066;28;20027;-75
2022/05/31 03:42:05;;;;;;;1.17;0.10;;;16.50;88.70;;;;;;5038283;28;20037;-74
2022/05/31 03:44:33;;;;;;;0.25;0.10;;;16.40;89.30;;;;;;5043285;28;20040;-75
2022/05/31 03:47:03;;;;;;;0.10;0.00;;;16.30;89.30;;;;;;5038161;28;20026;-74
2022/05/31 03:49:32;;;;;;;1.50;0.45;;;16.30;89.90;;;;;;5041351;28;20075;-75
2022/05/31 03:51:59;;;;;;;1.35;0.85;;;16.20;89.70;;;;;;5038310;28;20069;-76
2022/05/31 03:54:28;;;;;;;0.10;0.00;;;16.00;89.80;;;;;;5034248;28;20029;-75
2022/05/31 03:56:55;;;;;;;0.20;0.00;;;16.00;89.60;;;;;;5038658;28;20083;-77
2022/05/31 03:59:23;;;;;;;0.40;0.10;;;16.00;89.80;;;;;;5045711;28;20026;-74
2022/05/31 04:01:50;;;;;;;0.77;0.10;;;16.00;89.70;;;;;;5033411;28;20033;-75
2022/05/31 04:04:17;;;;;;;0.20;0.08;;;16.10;90.10;;;;;;5036028;28;20024;-73
2022/05/31 04:06:46;;;;;;;1.95;0.00;;;16.00;89.20;;;;;;5047129;28;20033;-76
2022/05/31 04:09:14;;;;;;;0.52;0.00;;;16.00;89.40;;;;;;5049724;28;20028;-74
2022/05/31 04:11:41;;;;;;;0.00;0.00;;;16.10;89.30;;;;;;5035294;28;20064;-73
2022/05/31 04:14:08;;;;;;;0.10;0.00;;;16.00;89.30;;;;;;5039698;28;20049;-75
2022/05/31 04:16:37;;;;;;;0.20;0.10;;;15.90;88.70;;;;;;5044943;28;20567;-74
2022/05/31 04:19:05;;;;;;;0.32;0.20;;;15.80;90.00;;;;;;5036984;28;20029;-77
2022/05/31 04:21:32;;;;;;;0.00;0.00;;;15.80;90.20;;;;;;5037165;28;20579;-73
2022/05/31 04:24:02;;;;;;;0.08;0.00;;;15.80;89.00;;;;;;5049419;28;20021;-75
2022/05/31 04:26:33;;;;;;;0.20;0.10;;;15.80;89.50;;;;;;5035425;28;20090;-75
2022/05/31 04:29:00;;;;;;;0.00;0.00;;;15.70;89.90;;;;;;5037472;28;20087;-74
2022/05/31 04:31:28;;;;;;;0.00;0.00;;;15.70;89.00;;;;;;5032698;28;20118;-78
2022/05/31 04:33:55;;;;;;;0.00;0.00;;;15.60;89.10;;;;;;5029563;28;20029;-77
2022/05/31 04:36:23;;;;;;;0.30;0.10;;;15.60;89.70;;;;;;5043577;28;20108;-78
2022/05/31 04:38:50;;;;;;;0.22;0.10;;;15.60;89.70;;;;;;5044704;28;20094;-77
2022/05/31 04:41:35;;;;;;;0.00;0.00;;;15.60;89.50;;;;;;5048882;28;20479;-72
2022/05/31 04:44:05;;;;;;;0.28;0.08;;;15.50;90.00;;;;;;5034702;28;20037;-76
2022/05/31 04:46:34;;;;;;;0.13;0.13;;;15.50;90.20;;;;;;5034706;28;20025;-74
2022/05/31 04:49:05;;;;;;;0.00;0.00;;;15.50;90.30;;;;;;5033244;28;20090;-74
2022/05/31 04:51:34;;;;;;;0.20;0.00;;;15.40;90.40;;;;;;5034980;28;20447;-75
2022/05/31 04:54:03;;;;;;;0.32;0.10;;;15.40;90.60;;;;;;5031833;28;20112;-72
2022/05/31 04:56:31;;;;;;;0.80;0.00;;;15.40;90.50;;;;;;5034741;28;20036;-75
2022/05/31 04:58:59;;;;;;;0.00;0.00;;;15.30;90.50;;;;;;5036252;28;20040;-76
2022/05/31 05:01:26;;;;;;;2.92;0.00;;;15.30;90.50;;;;;;5038227;28;20218;-73
2022/05/31 05:03:55;;;;;;;0.20;0.03;;;15.30;90.40;;;;;;5044039;28;21343;-75
2022/05/31 05:06:23;;;;;;;0.03;0.00;;;15.40;90.60;;;;;;5039344;28;20036;-73
2022/05/31 05:08:50;;;;;;;0.10;0.00;;;15.40;91.20;;;;;;5031555;28;20024;-74
2022/05/31 05:11:21;;;;;;;0.75;0.10;;;15.30;90.90;;;;;;5028599;28;20124;-75
2022/05/31 05:13:49;;;;;;;0.22;0.10;;;15.30;91.20;;;;;;5029605;28;20040;-73
2022/05/31 05:16:20;;;;;;;1.02;0.00;;;15.40;91.40;;;;;;5045257;28;20125;-74
2022/05/31 05:18:47;;;;;;;0.17;0.10;;;15.40;90.80;;;;;;5039538;28;20033;-72
2022/05/31 05:21:16;;;;;;;0.00;0.00;;;15.40;90.80;;;;;;5048226;28;20410;-72
2022/05/31 05:23:44;;;;;;;1.08;0.10;;;15.40;91.10;;;;;;5043591;28;20040;-76
2022/05/31 05:26:13;;;;;;;0.03;0.00;;;15.40;91.20;;;;;;5043758;28;20487;-74
2022/05/31 05:31:33;;;;;;;1.17;0.30;;;15.20;92.60;;;;;;5040368;28;20055;-71
2022/05/31 05:34:02;;;;;;;0.95;0.10;;;15.10;93.00;;;;;;5037830;28;20026;-73
2022/05/31 05:36:30;;;;;;;0.20;0.03;;;15.00;93.80;;;;;;5040370;28;20032;-75
2022/05/31 05:38:58;;;;;;;0.52;0.17;;;14.80;94.20;;;;;;5050075;28;20364;-73
2022/05/31 05:41:28;;;;;;;1.10;0.47;;;14.50;94.90;;;;;;5039948;28;20024;-72
2022/05/31 05:43:55;;;;;;;0.17;0.10;;;14.20;95.90;;;;;;5037741;28;20097;-73
2022/05/31 05:46:28;;;;;;;0.15;0.08;;;13.90;97.40;;;;;;5033902;28;20033;-75
2022/05/31 05:48:56;;;;;;;0.20;0.10;;;13.60;98.40;;;;;;5035933;28;20422;-74
2022/05/31 05:51:26;;;;;;;0.70;0.10;;;13.30;99.70;;;;;;5038485;28;20108;-76
2022/05/31 05:53:54;;;;;;;0.13;0.08;;;13.00;99.90;;;;;;5032088;28;20032;-74
2022/05/31 05:56:22;;;;;;;0.35;0.10;;;12.70;99.90;;;;;;5036695;28;20021;-73
2022/05/31 05:58:50;;;;;;;0.30;0.05;;;12.60;99.90;;;;;;5035142;28;20021;-75
2022/05/31 06:01:26;;;;;;;0.45;0.25;;;12.50;99.90;;;;;;5052908;28;20100;-73
2022/05/31 06:04:02;;;;;;;;;;;12.50;99.90;;;;;;5037032;28;20062;-72
2022/05/31 06:06:32;;;;;;;0.80;0.65;;;12.50;99.90;;;;;;5036424;28;19909;-77
2022/05/31 06:09:09;;;;;;;0.20;0.10;;;12.50;99.90;;;;;;5043179;28;20420;-73
2022/05/31 06:11:41;;;;;;;0.40;0.20;;;12.70;99.90;;;;;;5045917;28;20041;-74
2022/05/31 06:14:20;;;;;;;0.20;0.20;;;12.80;99.90;;;;;;5033305;28;20021;-74
2022/05/31 06:17:00;;;;;;;0.43;0.10;;;12.80;99.90;;;;;;5046027;28;20065;-74
2022/05/31 06:19:33;;;;;;;0.20;0.20;;;12.70;99.90;;;;;;5040842;28;20036;-73
2022/05/31 06:22:02;;;;;;;0.50;0.20;;;12.60;99.90;;;;;;5050932;28;20367;-74
2022/05/31 06:24:32;;;;;;;0.93;0.30;;;12.50;99.90;;;;;;5039622;28;20025;-74
2022/05/31 06:27:00;;;;;;;0.13;0.10;;;12.50;99.90;;;;;;5048705;28;20029;-73
2022/05/31 06:29:30;;;;;;;0.30;0.10;;;12.40;99.90;;;;;;5032205;28;20077;-73
2022/05/31 06:31:58;;;;;;;0.47;0.30;;;12.20;99.90;;;;;;5030078;28;20029;-73
2022/05/31 06:34:25;;;;;;;0.35;0.30;;;12.10;99.90;;;;;;5044672;28;20029;-74
2022/05/31 06:37:12;;;;;;;0.57;0.30;;;12.00;99.90;;;;;;5043505;28;20116;-74
2022/05/31 06:39:41;;;;;;;0.30;0.20;;;11.80;99.90;;;;;;5029755;28;20370;-75
2022/05/31 06:42:10;;;;;;;0.70;0.10;;;11.70;99.90;;;;;;5031747;28;20032;-77
2022/05/31 06:44:39;;;;;;;0.08;0.08;;;11.60;99.90;;;;;;5037206;28;20020;-75
2022/05/31 06:47:08;;;;;;;0.28;0.20;;;11.60;99.90;;;;;;5031021;28;20291;-76
2022/05/31 06:49:37;;;;;;;0.43;0.10;;;11.50;99.90;;;;;;5038813;28;20080;-74
2022/05/31 06:57:42;;;;;;;0.20;0.13;;;11.40;99.90;;;;;;5035199;28;20417;-75
2022/05/31 07:00:12;;;;;;;4.95;0.20;;;11.40;99.90;;;;;;5032335;28;20535;-77
2022/05/31 07:02:40;;;;;;;0.22;0.20;;;11.30;99.90;;;;;;5030523;28;20030;-75
2022/05/31 07:05:08;;;;;;;0.28;0.20;;;11.30;99.90;;;;;;5042504;28;20017;-76
2022/05/31 07:07:35;;;;;;;0.30;0.10;;;11.20;99.90;;;;;;5043529;28;20013;-74
2022/05/31 07:10:03;;;;;;;0.38;0.10;;;11.20;99.90;;;;;;5040288;28;20431;-79
2022/05/31 07:12:31;;;;;;;0.10;0.10;;;11.20;99.90;;;;;;5031538;28;20041;-75
2022/05/31 07:14:58;;;;;;;0.25;0.10;;;11.20;99.90;;;;;;5041814;28;20056;-72
2022/05/31 07:17:26;;;;;;;0.63;0.10;;;11.10;99.90;;;;;;5042330;28;20056;-76
2022/05/31 07:19:54;;;;;;;0.30;0.20;;;11.10;99.90;;;;;;5042250;28;20021;-76
2022/05/31 07:22:22;;;;;;;0.22;0.13;;;11.10;99.90;;;;;;5047466;28;20083;-75
2022/05/31 07:24:49;;;;;;;0.22;0.20;;;11.10;99.90;;;;;;5037545;28;20081;-75
2022/05/31 07:27:16;;;;;;;0.70;0.20;;;11.10;99.90;;;;;;5034514;28;20083;-76
2022/05/31 07:29:44;;;;;;;1.13;0.20;;;11.10;99.90;;;;;;5033186;28;20029;-78
2022/05/31 07:32:12;;;;;;;1.20;0.17;;;11.10;99.90;;;;;;5043113;28;20044;-79
2022/05/31 07:34:39;;;;;;;0.20;0.10;;;11.20;99.90;;;;;;5046891;28;20099;-79
2022/05/31 07:37:10;;;;;;;0.43;0.10;;;11.20;99.80;;;;;;5032998;28;20104;-80
2022/05/31 07:39:37;;;;;;;0.10;0.10;;;11.20;99.30;;;;;;5035072;28;20063;-82
2022/05/31 07:42:05;;;;;;;0.20;0.15;;;11.20;99.80;;;;;;5045140;28;20044;-78
2022/05/31 07:44:32;;;;;;;0.20;0.20;;;11.20;99.80;;;;;;5052081;28;20025;-78
2022/05/31 07:47:03;;;;;;;0.60;0.20;;;11.20;99.60;;;;;;5041087;28;20575;-74
2022/05/31 07:49:31;;;;;;;1.17;0.30;;;11.20;99.70;;;;;;5037485;28;20080;-74
2022/05/31 07:51:59;;;;;;;0.20;0.20;;;11.20;99.90;;;;;;5045259;28;20086;-76
2022/05/31 07:54:29;;;;;;;0.93;0.30;;;11.10;99.90;;;;;;5039715;28;20028;-77
2022/05/31 07:56:56;;;;;;;0.45;0.30;;;11.10;99.90;;;;;;5042462;28;20059;-77
2022/05/31 07:59:24;;;;;;;2.85;0.85;;;11.00;99.90;;;;;;5038385;28;20060;-75
2022/05/31 08:01:51;;;;;;;0.80;0.50;;;11.00;99.90;;;;;;5048084;28;20072;-77
2022/05/31 08:04:18;;;;;;;1.15;0.40;;;11.00;99.90;;;;;;5042844;28;20032;-77
2022/05/31 08:06:46;;;;;;;3.05;1.33;;;11.00;99.90;;;;;;5045257;28;20387;-76
2022/05/31 08:09:13;;;;;;;21.35;5.60;;;10.90;99.90;;;;;;5049928;28;20036;-77
2022/05/31 08:11:40;;;;;;;4.53;1.00;;;10.90;99.90;;;;;;5053050;28;20040;-77
2022/05/31 08:14:08;;;;;;;1.63;0.80;;;10.90;99.90;;;;;;5034385;28;20068;-77
2022/05/31 08:16:35;;;;;;;1.50;0.40;;;10.90;99.90;;;;;;5048447;28;20036;-78
2022/05/31 08:19:04;;;;;;;1.30;0.50;;;10.90;99.90;;;;;;5042661;28;20057;-76
2022/05/31 08:21:32;;;;;;;2.15;0.60;;;10.90;99.90;;;;;;5045088;28;20109;-76
2022/05/31 08:24:03;;;;;;;2.42;1.20;;;10.90;99.90;;;;;;5038064;28;20044;-80
2022/05/31 08:26:31;;;;;;;2.00;1.10;;;10.90;99.90;;;;;;5043503;28;20116;-75
2022/05/31 08:28:58;;;;;;;2.60;0.90;;;11.00;99.80;;;;;;5040766;28;20078;-75
2022/05/31 08:31:33;;;;;;;1.30;0.63;;;10.90;99.90;;;;;;5034363;28;20391;-75
2022/05/31 08:34:01;;;;;;;0.60;0.50;;;10.90;99.90;;;;;;5041405;28;20032;-75
2022/05/31 08:36:28;;;;;;;1.02;0.40;;;10.90;99.90;;;;;;5046519;28;20028;-75
2022/05/31 08:38:55;;;;;;;0.85;0.50;;;10.80;99.70;;;;;;5038805;28;20483;-78
2022/05/31 08:41:45;;;;;;;0.77;0.40;;;10.90;99.60;;;;;;5032736;28;20026;-78
2022/05/31 08:44:30;;;;;;;0.93;0.50;;;10.90;99.60;;;;;;5040258;28;20030;-80
2022/05/31 08:47:22;;;;;;;0.80;0.40;;;10.90;99.50;;;;;;5036935;28;20045;-76
2022/05/31 08:53:09;;;;;;;1.02;0.30;;;11.00;99.60;;;;;;5039962;28;20079;-77
2022/05/31 08:58:51;;;;;;;0.40;0.20;;;11.00;99.80;;;;;;5030478;28;20036;-74
2022/05/31 09:01:23;;;;;;;0.45;0.30;;;11.00;99.60;;;;;;5041244;28;20073;-76
2022/05/31 09:04:01;;;;;;;0.82;0.30;;;11.00;99.50;;;;;;5046746;28;20075;-74
2022/05/31 09:06:45;;;;;;;3.08;0.40;;;11.00;99.70;;;;;;5032665;28;20029;-76
2022/05/31 09:09:27;;;;;;;0.85;0.40;;;11.00;99.60;;;;;;5032332;28;20029;-79
2022/05/31 09:12:15;;;;;;;4.75;0.70;;;11.10;99.10;;;;;;5046036;28;20044;-76
2022/05/31 09:15:01;;;;;;;3.47;0.40;;;11.20;99.10;;;;;;5047529;28;20021;-75
2022/05/31 09:17:51;;;;;;;1.23;0.50;;;11.20;98.90;;;;;;5039874;28;21297;-76
2022/05/31 09:20:27;;;;;;;4.22;0.82;;;11.20;99.10;;;;;;5033512;28;20041;-79
2022/05/31 09:22:54;;;;;;;0.95;0.40;;;11.10;98.80;;;;;;5038262;28;20391;-78
2022/05/31 09:25:22;;;;;;;1.80;0.50;;;11.20;98.40;;;;;;5033109;28;20379;-74
2022/05/31 09:27:51;;;;;;;2.70;0.93;;;11.30;98.40;;;;;;5030603;28;20468;-73
2022/05/31 09:30:47;;;;;;;1.42;0.43;;;11.20;98.40;;;;;;5032467;28;20153;-76
2022/05/31 09:33:41;;;;;;;3.83;0.60;;;11.20;98.30;;;;;;5030096;28;20159;-75
2022/05/31 09:36:27;;;;;;;0.68;0.30;;;11.20;98.10;;;;;;5036718;28;20037;-78
2022/05/31 09:39:17;;;;;;;2.38;0.60;;;11.20;98.20;;;;;;5035170;28;20563;-75
2022/05/31 09:42:06;;;;;;;2.15;0.50;;;11.20;98.00;;;;;;5031221;28;20045;-74
2022/05/31 09:44:44;;;;;;;1.40;0.45;;;11.20;97.50;;;;;;5038195;28;20017;-75
2022/05/31 09:47:20;;;;;;;3.13;0.73;;;11.30;96.80;;;;;;5039512;28;20029;-78
2022/05/31 09:49:48;;;;;;;;;;;11.50;96.70;;;;;;5032481;28;20049;-80
2022/05/31 09:52:42;;;;;;;0.98;0.30;;;11.50;96.60;;;;;;5033727;28;19935;-76
2022/05/31 09:58:27;;;;;;;2.92;0.35;;;11.60;96.50;;;;;;5030473;28;20031;-76
2022/05/31 10:01:02;;;;;;;0.98;0.50;;;11.60;96.60;;;;;;5034416;28;20053;-77
2022/05/31 10:03:44;;;;;;;0.25;0.22;;;11.60;96.60;;;;;;5027481;28;20487;-74
2022/05/31 10:06:24;;;;;;;1.73;0.40;;;11.60;96.30;;;;;;5030748;28;20026;-75
2022/05/31 10:08:52;;;;;;;1.75;0.82;;;11.70;96.00;;;;;;5028655;28;20032;-77
2022/05/31 10:11:44;;;;;;;0.65;0.30;;;11.70;95.90;;;;;;5039884;28;20036;-76
2022/05/31 10:14:26;;;;;;;0.65;0.38;;;11.80;95.40;;;;;;5029934;28;20709;-74
2022/05/31 10:16:55;;;;;;;0.20;0.10;;;12.00;94.60;;;;;;5034805;28;20040;-77
2022/05/31 10:19:28;;;;;;;0.47;0.10;;;12.00;94.70;;;;;;5032472;28;20276;-78
2022/05/31 10:21:57;;;;;;;0.90;0.43;;;12.00;94.70;;;;;;5031726;28;20061;-77
2022/05/31 10:24:28;;;;;;;0.85;0.13;;;12.00;94.60;;;;;;5033745;28;20040;-77
2022/05/31 10:27:10;;;;;;;1.38;0.20;;;11.90;94.90;;;;;;5028872;28;20112;-76
2022/05/31 10:29:59;;;;;;;1.20;0.20;;;11.90;95.00;;;;;;5029757;28;20017;-77
2022/05/31 10:32:34;;;;;;;0.85;0.40;;;11.90;95.20;;;;;;5031276;28;20033;-77
2022/05/31 10:35:25;;;;;;;2.22;0.70;;;11.80;95.40;;;;;;5030043;28;20384;-76
2022/05/31 10:38:11;;;;;;;2.88;0.70;;;11.70;95.50;;;;;;5033892;28;20037;-75
2022/05/31 10:40:52;;;;;;;1.55;0.52;;;11.60;95.60;;;;;;5035612;28;20091;-85
2022/05/31 10:43:31;;;;;;;1.50;0.77;;;11.60;95.60;;;;;;5036478;28;20036;-79
2022/05/31 10:46:29;;;;;;;1.42;0.40;;;11.60;95.60;;;;;;5039090;28;20025;-78
2022/05/31 10:49:12;;;;;;;0.35;0.10;;;11.60;95.90;;;;;;5036777;28;20533;-79
2022/05/31 10:52:06;;;;;;;1.02;0.10;;;11.50;96.00;;;;;;5041027;28;20106;-77
2022/05/31 10:54:37;;;;;;;0.68;0.22;;;11.50;96.00;;;;;;5040827;28;20061;-78
2022/05/31 10:57:51;;;;;;;0.25;0.25;;;11.40;96.10;;;;;;5046609;28;20037;-78
2022/05/31 11:00:32;;;;;;;0.52;0.10;;;11.40;96.00;;;;;;5035510;28;20331;-77
2022/05/31 11:03:23;;;;;;;0.45;0.10;;;11.40;95.90;;;;;;5032128;28;20506;-76
2022/05/31 11:05:56;;;;;;;1.08;0.20;;;11.40;95.90;;;;;;5034922;28;20095;-78
2022/05/31 11:11:29;;;;;;;0.20;0.10;;;11.30;96.10;;;;;;5041538;28;20502;-79
2022/05/31 11:14:22;;;;;;;0.63;0.10;;;11.20;96.10;;;;;;5037915;28;20527;-78
2022/05/31 11:16:55;;;;;;;0.70;0.22;;;11.10;96.30;;;;;;5044031;28;20059;-84
2022/05/31 11:19:40;;;;;;;1.17;0.10;;;11.10;96.30;;;;;;5040510;28;20029;-82
2022/05/31 11:22:32;;;;;;;0.63;0.25;;;11.00;96.40;;;;;;5029220;28;20038;-81
2022/05/31 11:25:29;;;;;;;1.17;0.20;;;10.90;96.60;;;;;;5043547;28;20037;-77
2022/05/31 11:28:15;;;;;;;0.10;0.10;;;10.80;96.70;;;;;;5038226;28;20018;-79
2022/05/31 11:31:10;;;;;;;0.38;0.25;;;10.80;96.40;;;;;;5028343;28;20102;-81
2022/05/31 11:33:52;;;;;;;0.20;0.10;;;10.80;96.20;;;;;;5033941;28;20041;-77
2022/05/31 11:36:25;;;;;;;0.63;0.17;;;10.90;95.70;;;;;;5030640;28;20470;-77
2022/05/31 11:38:55;;;;;;;0.40;0.10;;;10.90;95.50;;;;;;5030722;28;20028;-74
2022/05/31 11:41:47;;;;;;;2.75;0.30;;;10.90;95.20;;;;;;5030394;28;20108;-75
2022/05/31 11:44:14;;;;;;;0.57;0.22;;;10.90;95.20;;;;;;5028003;28;20048;-75
2022/05/31 11:46:51;;;;;;;1.17;0.30;;;10.90;95.50;;;;;;5032989;28;20025;-76
2022/05/31 11:49:55;;;;;;;0.20;0.10;;;10.80;95.50;;;;;;5028058;28;20060;-76
2022/05/31 11:52:39;;;;;;;1.05;0.25;;;10.70;95.60;;;;;;5045369;28;20491;-77
2022/05/31 11:55:39;;;;;;;0.60;0.50;;;10.70;95.70;;;;;;5045711;28;20036;-76
2022/05/31 11:58:41;;;;;;;1.92;0.20;;;10.60;95.70;;;;;;5031441;28;20049;-76
2022/05/31 12:01:20;;;;;;;0.88;0.30;;;10.60;95.50;;;;;;5028392;28;20026;-77
2022/05/31 12:04:08;;;;;;;0.95;0.22;;;10.70;94.60;;;;;;5030207;28;20587;-78
2022/05/31 12:06:53;;;;;;;0.47;0.17;;;10.90;94.50;;;;;;5029295;28;20480;-79
2022/05/31 12:09:53;;;;;;;3.20;0.47;;;11.10;93.50;;;;;;5028271;28;20040;-78
2022/05/31 12:12:31;;;;;;;0.20;0.08;;;11.20;93.60;;;;;;5029457;28;20133;-75
2022/05/31 12:15:14;;;;;;;0.10;0.10;;;11.20;93.50;;;;;;5028457;28;20036;-77
2022/05/31 12:17:54;;;;;;;0.95;0.15;;;11.30;92.70;;;;;;5041818;28;20033;-77
2022/05/31 12:20:29;;;;;;;1.38;0.20;;;11.40;92.80;;;;;;5046529;28;20047;-76
2022/05/31 12:23:08;;;;;;;1.33;0.30;;;11.30;93.00;;;;;;5046686;28;20055;-78
2022/05/31 12:25:41;;;;;;;0.95;0.17;;;11.30;93.00;;;;;;5044332;28;20636;-79
2022/05/31 12:28:31;;;;;;;0.45;0.20;;;11.30;93.30;;;;;;5040326;28;20411;-78
2022/05/31 12:31:14;;;;;;;1.50;0.50;;;11.20;93.50;;;;;;5038106;28;20025;-77
2022/05/31 12:33:44;;;;;;;2.53;0.22;;;11.10;93.50;;;;;;5039091;28;20055;-77
2022/05/31 12:36:14;;;;;;;0.57;0.20;;;11.10;93.60;;;;;;5029886;28;20029;-79
2022/05/31 12:39:21;;;;;;;0.75;0.30;;;11.10;93.60;;;;;;5028837;28;20580;-79
2022/05/31 12:41:50;;;;;;;;;;;11.00;93.70;;;;;;5039806;28;20118;-79
2022/05/31 12:44:35;;;;;;;0.20;0.15;;;11.00;94.20;;;;;;5044674;28;19917;-75
2022/05/31 12:47:29;;;;;;;0.47;0.40;;;10.90;94.60;;;;;;5036698;28;20028;-77
2022/05/31 12:50:04;;;;;;;0.30;0.13;;;10.80;94.80;;;;;;5045319;28;20080;-80
2022/05/31 12:55:26;;;;;;;0.20;0.20;;;10.60;95.40;;;;;;5049267;28;20083;-79
2022/05/31 12:58:37;;;;;;;0.28;0.28;;;10.60;95.80;;;;;;5047681;28;20819;-86
2022/05/31 13:01:14;;;;;;;0.60;0.30;;;10.60;96.00;;;;;;5027160;28;20136;-79
2022/05/31 13:03:41;;;;;;;0.55;0.25;;;10.50;96.30;;;;;;5031694;28;20034;-84
2022/05/31 13:06:24;;;;;;;0.40;0.17;;;10.40;96.20;;;;;;5036052;28;20021;-80
2022/05/31 13:08:59;;;;;;;1.73;0.17;;;10.40;96.10;;;;;;5039181;28;20057;-78
2022/05/31 13:20:04;;;;;;;1.95;0.30;;;10.20;96.90;;;;;;5041324;28;20128;-80
2022/05/31 13:22:38;;;;;;;4.40;0.28;;;10.10;96.80;;;;;;5040106;28;20021;-79
2022/05/31 13:25:19;;;;;;;1.30;0.20;;;10.10;97.20;;;;;;5036389;28;20524;-79
2022/05/31 13:27:53;;;;;;;2.05;0.32;;;10.10;96.90;;;;;;5028152;28;20025;-76
2022/05/31 13:30:23;;;;;;;1.85;0.20;;;10.10;96.90;;;;;;5031586;28;20041;-77
2022/05/31 13:32:51;;;;;;;1.40;0.38;;;10.00;96.70;;;;;;5037704;28;20045;-78
2022/05/31 13:35:26;;;;;;;0.57;0.25;;;10.10;96.60;;;;;;5037200;28;20091;-78
2022/05/31 13:38:01;;;;;;;0.55;0.22;;;10.10;96.50;;;;;;5032453;28;20037;-78
2022/05/31 13:40:41;;;;;;;1.03;0.30;;;10.10;96.50;;;;;;5040558;28;20029;-84
2022/05/31 13:43:23;;;;;;;1.00;0.30;;;10.10;96.40;;;;;;5039202;28;20026;-80
2022/05/31 13:45:57;;;;;;;0.98;0.52;;;10.10;96.50;;;;;;5028032;28;20037;-80
2022/05/31 13:48:28;;;;;;;2.25;0.45;;;10.10;96.50;;;;;;5048359;28;20048;-77
2022/05/31 13:51:07;;;;;;;1.05;0.20;;;10.10;96.50;;;;;;5040969;28;20033;-79
2022/05/31 13:53:38;;;;;;;0.35;0.10;;;10.00;96.60;;;;;;5038231;28;20610;-79
2022/05/31 13:56:06;;;;;;;0.10;0.10;;;10.00;96.60;;;;;;5042481;28;20146;-80